Accueil
METAR-TAF:

METAR-TAF

Aéroports :

Aéroport de Tcheliabinsk

Tcheliabinsk, Russie

latitude: 55-10N, longitude: 061-24E, altitude: 234 m

Observation

Le bulletin a été fait il y a 39 minutes, à 19:00 UTC
Vent 6 kt de sud
Température 3°C
Humidité 75%
Pression 1017 hPa
Visibilité: 5000 m
fumée

METAR: USCC 291900Z 19003MPS 5000 FU NSC 03/M01 Q1017 R27/000060 NOSIG RMK QFE743

Heure: 00:39 (19:39 UTC)

Prévision

Le bulletin a été fait il y a 2 heures et 39 minutes, à 17:00 UTC
Prévision valable du 29 à 18 UTC au 30 à 18 UTC
Vent 6 kt de sud/sud-ouest avec des rafales jusqu'à 19 kt
Visibilité: 5000 m
Nuages épars à une hauteur de 4000 ft
fumée
Temporairement
du 29 à 18 UTC au 30 à 05 UTC
Vent 10 kt de sud-ouest avec des rafales jusqu'à 23 kt
Visibilité: 3100 m
brume, fumée

TAF: USCC 291700Z 2918/3018 21003G10MPS 5000 FU SCT040 TEMPO 2918/3005 22005G12MPS 3100 BR FU

Observations et prévisions météorologiques de plus de 4000 aéroports (messages METAR et TAF).

Les stations disponibles sont représentées par des disques jaunes et rouges sur la carte.

Passer la souris dessus pour voir le nom de la station.

Cliquer dessus pour voir les observations et prévisions météorologiques.

Pour changer de carte: cliquez sur les boutons verts avec une croix noire pour zoomer, sur le bouton vert avec un tiret pour effectuer un zoom arrière, ou sur les flèches vertes pour les cartes adjacentes.


METAR-TAF: